Cajobi, Brazil
Current Conditions -  °F | °C
As of 7:00 AM on Friday 28 Nov 2014 (Local Time) from SBSR Reporting Station
Overcast Overcast  
Wind Chill: 72°   Ceiling: 800
Heat Index: 72°   Visibility: 6mi
Dew Point: 68°   Wind: 2mph
Humidity: 88%   Direction: 70°ENE
Pressure: 29.97"   Gusts: NA
Location:  20.88°S, 48.81°W
Report Text: SBSR 280900Z 07002KT 9999 OVC008 22/20 Q1015
Loading
Personal Weather Stations






























Interactive Weather Map New forecast layout! Learn more

10-Day Weather Forecast

Advertisements
Track Severe Weather on mobile